.
WxDataArchive / Data Records for 2008-04-21
2008-04-20 April 2008 2008-04-22

Data Records for Monday, 21 April 2008

Time	Temp	Chill	HIndex	Humid	Dewpt	 Wind 	HiWind	WindDir	Rain 	Barom 
-----	----	-----	------	-----	-----	------	------	-------	-----	----- 
00:00	48.5	48.5	48.5	95	47.1	0	0	---	0.00	29.980 
00:05	48.3	48.3	48.3	95	46.9	0	0	---	0.00	29.981 
00:10	48.2	48.2	48.2	95	46.8	0	0	---	0.00	29.982 
00:15	48.3	48.3	48.3	95	46.9	0	0	---	0.00	29.982 
00:20	48.2	48.2	48.2	95	46.8	0	0	---	0.00	29.983 
00:25	48.2	48.2	48.2	96	47.1	0	0	---	0.00	29.983 
00:30	48.2	48.2	48.2	96	47.1	0	0	---	0.00	29.983 
00:35	48.5	48.5	48.5	96	47.4	0	0	---	0.00	29.981 
00:40	48.6	48.6	48.6	96	47.5	0	1	135	0.00	29.981 
00:45	48.6	48.6	48.6	96	47.5	0	0	---	0.00	29.982 
00:50	48.8	48.8	48.8	96	47.7	0	1	135	0.00	29.982 
00:55	48.9	48.9	48.9	96	47.8	0	1	135	0.00	29.981 
01:00	49.1	49.1	49.1	96	48.0	0	2	135	0.00	29.981 
01:05	49.2	49.2	49.2	96	48.1	0	2	135	0.00	29.982 
01:10	49.2	49.2	49.2	96	48.1	0	2	135	0.00	29.982 
01:15	49.2	49.2	49.2	96	48.1	0	1	135	0.00	29.982 
01:20	49.2	49.2	49.2	96	48.1	0	1	135	0.00	29.982 
01:25	49.2	49.2	49.2	96	48.1	0	1	135	0.00	29.982 
01:30	49.1	49.1	49.1	96	48.0	0	1	135	0.00	29.982 
01:35	48.9	48.9	48.9	96	47.8	0	1	135	0.00	29.982 
01:40	48.8	48.8	48.8	96	47.7	0	1	135	0.00	29.983 
01:45	48.5	48.5	48.5	96	47.4	0	0	---	0.00	29.983 
01:50	48.5	48.5	48.5	96	47.4	0	1	135	0.00	29.983 
01:55	48.3	48.3	48.3	96	47.2	0	0	---	0.00	29.986 
02:00	48.3	48.3	48.3	96	47.2	0	2	135	0.00	29.985 
02:05	48.2	48.2	48.2	96	47.1	1	2	135	0.00	29.986 
02:10	48.0	48.0	48.0	96	46.9	1	2	135	0.00	29.987 
02:15	48.0	48.0	48.0	96	46.9	0	1	135	0.00	29.988 
02:20	47.9	47.9	47.9	96	46.8	1	4	112	0.00	29.988 
02:25	47.6	47.6	47.6	96	46.5	2	6	112	0.00	29.990 
02:30	47.3	47.3	47.3	96	46.2	1	3	112	0.00	29.989 
02:35	47.1	47.1	47.1	96	46.0	1	2	112	0.00	29.989 
02:40	47.0	47.0	47.0	96	45.9	1	4	112	0.00	29.987 
02:45	46.8	46.8	46.8	96	45.7	1	3	112	0.00	29.987 
02:50	46.8	46.8	46.8	97	46.0	0	2	112	0.00	29.990 
02:55	46.8	46.8	46.8	97	46.0	0	1	112	0.00	29.992 
03:00	46.8	46.8	46.8	97	46.0	0	1	112	0.00	29.994 
03:05	47.0	47.0	47.0	97	46.2	0	2	112	0.00	29.996 
03:10	47.1	47.1	47.1	97	46.3	1	2	112	0.00	29.997 
03:15	47.1	47.1	47.1	97	46.3	1	2	112	0.00	30.000 
03:20	47.3	47.3	47.3	97	46.5	1	2	112	0.00	30.000 
03:25	47.3	47.3	47.3	97	46.5	0	1	112	0.00	30.001 
03:30	47.4	47.4	47.4	97	46.6	0	1	112	0.00	30.001 
03:35	47.6	47.6	47.6	97	46.8	0	2	112	0.00	30.000 
03:40	47.7	47.7	47.7	97	46.9	0	2	112	0.00	30.003 
03:45	47.7	47.7	47.7	97	46.9	0	2	112	0.00	30.004 
03:50	47.7	47.7	47.7	97	46.9	0	1	135	0.00	30.007 
03:55	47.7	47.7	47.7	97	46.9	0	1	135	0.00	30.003 
04:00	47.9	47.9	47.9	97	47.1	0	1	135	0.00	30.003 
04:05	47.9	47.9	47.9	97	47.1	0	2	135	0.00	30.003 
04:10	47.9	47.9	47.9	97	47.1	0	1	135	0.00	30.003 
04:15	47.9	47.9	47.9	98	47.4	0	2	135	0.00	30.003 
04:20	48.0	48.0	48.0	98	47.5	1	3	90	0.00	30.003 
04:25	48.0	48.0	48.0	98	47.5	1	4	112	0.00	30.003 
04:30	48.0	48.0	48.0	98	47.5	1	3	112	0.00	30.003 
04:35	48.0	48.0	48.0	98	47.5	1	4	112	0.00	30.003 
04:40	48.0	48.0	48.0	98	47.5	2	7	112	0.00	30.002 
04:45	48.0	48.0	48.0	98	47.5	1	3	112	0.00	30.004 
04:50	48.0	48.0	48.0	98	47.5	1	3	112	0.00	30.010 
04:55	47.9	47.9	47.9	98	47.4	0	2	112	0.00	30.011 
05:00	47.9	47.9	47.9	98	47.4	0	2	112	0.00	30.015 
05:05	47.9	47.9	47.9	98	47.4	0	1	112	0.00	30.015 
05:10	48.0	48.0	48.0	98	47.5	0	2	112	0.00	30.018 
05:15	48.0	48.0	48.0	98	47.5	0	1	112	0.00	30.023 
05:20	48.0	48.0	48.0	98	47.5	0	1	112	0.00	30.026 
05:25	48.0	48.0	48.0	98	47.5	0	0	---	0.00	30.026 
05:30	48.0	48.0	48.0	98	47.5	0	0	---	0.00	30.028 
05:35	48.0	48.0	48.0	98	47.5	0	1	112	0.01	30.029 
05:40	48.0	48.0	48.0	98	47.5	0	1	112	0.00	30.029 
05:45	48.2	48.2	48.2	98	47.7	0	1	112	0.00	30.031 
05:50	48.2	48.2	48.2	98	47.7	0	1	112	0.00	30.032 
05:55	48.0	48.0	48.0	98	47.5	0	2	112	0.00	30.036 
06:00	48.0	48.0	48.0	98	47.5	1	2	112	0.00	30.039 
06:05	48.0	48.0	48.0	98	47.5	0	0	---	0.00	30.043 
06:10	48.2	48.2	48.2	98	47.7	0	0	---	0.00	30.043 
06:15	48.2	48.2	48.2	98	47.7	0	0	---	0.00	30.046 
06:20	48.0	48.0	48.0	98	47.5	0	0	---	0.00	30.047 
06:25	48.0	48.0	48.0	98	47.5	0	0	---	0.00	30.047 
06:30	48.0	48.0	48.0	98	47.5	0	0	---	0.00	30.048 
06:35	48.0	48.0	48.0	98	47.5	0	0	---	0.00	30.050 
06:40	48.2	48.2	48.2	98	47.7	0	1	112	0.00	30.055 
06:45	48.2	48.2	48.2	98	47.7	0	1	112	0.00	30.058 
06:50	48.3	48.3	48.3	98	47.8	0	1	112	0.00	30.060 
06:55	48.3	48.3	48.3	98	47.8	0	3	112	0.00	30.060 
07:00	48.2	48.2	48.2	98	47.7	1	2	112	0.00	30.061 
07:05	48.3	48.3	48.3	98	47.8	1	3	112	0.00	30.063 
07:10	48.2	48.2	48.2	98	47.7	1	3	90	0.00	30.065 
07:15	48.2	48.2	48.2	98	47.7	2	5	90	0.00	30.067 
07:20	47.9	47.9	47.9	98	47.4	2	4	90	0.00	30.069 
07:25	47.9	47.9	47.9	98	47.4	2	4	112	0.00	30.075 
07:30	48.0	48.0	48.0	98	47.5	2	4	112	0.00	30.074 
07:35	48.0	48.0	48.0	98	47.5	1	4	112	0.00	30.075 
07:40	48.0	48.0	48.0	98	47.5	1	3	112	0.00	30.078 
07:45	48.0	48.0	48.0	98	47.5	1	3	90	0.00	30.077 
07:50	48.2	48.2	48.2	98	47.7	1	2	90	0.00	30.077 
07:55	47.9	47.9	47.9	98	47.4	2	4	90	0.00	30.076 
08:00	48.0	48.0	48.0	98	47.5	1	3	90	0.00	30.074 
08:05	48.5	48.5	48.5	98	48.0	0	2	90	0.00	30.079 
08:10	48.6	48.6	48.6	98	48.1	1	2	90	0.00	30.075 
08:15	48.6	48.6	48.6	98	48.1	1	3	90	0.00	30.073 
08:20	48.8	48.8	48.8	98	48.3	1	4	90	0.00	30.072 
08:25	49.1	49.1	49.1	98	48.6	0	2	90	0.00	30.072 
08:30	49.5	49.5	49.5	98	49.0	1	3	90	0.00	30.073 
08:35	49.6	49.6	49.6	98	49.1	0	2	135	0.00	30.074 
08:40	49.8	49.8	49.8	98	49.3	0	3	135	0.00	30.076 
08:45	49.9	49.9	49.9	98	49.4	1	3	135	0.00	30.077 
08:50	50.2	50.2	50.2	98	49.7	1	3	135	0.00	30.078 
08:55	50.8	50.8	50.8	98	50.3	0	2	135	0.00	30.076 
09:00	51.0	51.0	51.0	98	50.5	1	3	135	0.00	30.076 
09:05	51.0	51.0	51.0	98	50.5	1	3	135	0.00	30.081 
09:10	51.1	51.1	51.1	98	50.6	0	2	135	0.00	30.081 
09:15	51.7	51.7	51.7	98	51.2	0	1	135	0.00	30.079 
09:20	52.0	52.0	52.0	98	51.5	0	2	158	0.00	30.079 
09:25	52.6	52.6	52.6	98	52.0	0	2	158	0.00	30.079 
09:30	53.3	53.3	53.3	98	52.7	1	3	158	0.00	30.078 
09:35	53.5	53.5	53.5	98	52.9	1	4	135	0.00	30.078 
09:40	53.9	53.9	53.9	98	53.3	1	3	112	0.00	30.078 
09:45	54.5	54.5	54.5	98	53.9	1	2	112	0.00	30.077 
09:50	55.0	55.0	55.0	98	54.4	1	3	112	0.00	30.077 
09:55	55.6	55.6	55.6	98	55.0	1	2	225	0.00	30.076 
10:00	56.5	56.5	56.5	97	55.7	0	2	225	0.00	30.075 
10:05	57.3	57.3	57.3	97	56.5	0	1	225	0.00	30.077 
10:10	57.6	57.6	57.6	94	55.9	1	4	225	0.00	30.075 
10:15	58.7	58.7	58.7	89	55.5	1	3	90	0.00	30.074 
10:20	58.9	58.9	58.9	79	52.4	4	6	90	0.00	30.075 
10:25	59.9	59.9	59.9	77	52.7	2	5	112	0.00	30.073 
10:30	61.2	61.2	61.2	72	52.1	2	5	112	0.00	30.070 
10:35	62.3	62.3	62.3	68	51.6	2	6	90	0.00	30.068 
10:40	62.9	62.9	62.9	66	51.4	3	5	90	0.00	30.067 
10:45	63.1	63.1	63.1	65	51.1	3	6	112	0.00	30.066 
10:50	63.4	63.4	63.4	64	51.0	3	5	112	0.00	30.067 
10:55	63.7	63.7	63.7	64	51.3	3	6	112	0.00	30.065 
11:00	64.0	64.0	64.0	66	52.4	3	6	112	0.00	30.064 
11:05	64.5	64.5	64.5	63	51.6	2	6	112	0.00	30.065 
11:10	65.3	65.3	65.3	61	51.5	2	5	112	0.00	30.062 
11:15	65.6	65.6	65.6	59	50.9	2	4	112	0.00	30.060 
11:20	66.1	66.1	66.1	58	50.9	2	7	112	0.00	30.058 
11:25	65.8	65.8	65.8	58	50.6	4	6	112	0.00	30.061 
11:30	66.0	66.0	66.0	58	50.8	2	5	112	0.00	30.058 
11:35	66.3	66.3	66.3	59	51.5	2	6	112	0.00	30.057 
11:40	66.4	66.4	66.4	55	49.7	2	6	112	0.00	30.057 
11:45	66.9	66.9	66.9	61	53.0	2	5	112	0.00	30.054 
11:50	67.1	67.1	67.1	52	48.9	3	6	90	0.00	30.055 
11:55	67.1	67.1	67.1	55	50.4	2	5	90	0.00	30.055 
12:00	67.4	67.4	67.4	52	49.2	2	9	90	0.00	30.054 
12:05	67.3	67.3	67.3	54	50.1	3	6	112	0.00	30.054 
12:10	67.6	67.6	67.6	53	49.9	2	5	90	0.00	30.052 
12:15	68.1	68.1	68.1	52	49.8	1	5	112	0.00	30.051 
12:20	68.3	68.3	68.3	49	48.4	2	5	90	0.00	30.052 
12:25	68.1	68.1	68.1	49	48.2	2	6	112	0.00	30.051 
12:30	68.1	68.1	68.1	53	50.3	2	4	112	0.00	30.050 
12:35	68.6	68.6	68.6	46	47.0	2	5	90	0.00	30.049 
12:40	68.8	68.8	68.8	49	48.8	2	6	112	0.00	30.044 
12:45	68.9	68.9	68.9	45	46.7	2	7	90	0.00	30.043 
12:50	68.9	68.9	68.9	46	47.3	3	9	90	0.00	30.041 
12:55	69.1	69.1	69.1	47	48.0	3	7	112	0.00	30.042 
13:00	68.9	68.9	68.9	46	47.3	3	8	112	0.00	30.040 
13:05	68.8	68.8	68.8	46	47.2	4	10	112	0.00	30.042 
13:10	68.6	68.6	68.6	48	48.1	2	7	90	0.00	30.043 
13:15	68.8	68.8	68.8	46	47.2	4	13	90	0.00	30.044 
13:20	68.9	68.9	68.9	48	48.4	3	9	90	0.00	30.042 
13:25	69.1	69.1	69.1	46	47.4	3	9	112	0.00	30.039 
13:30	69.3	69.3	69.3	47	48.2	4	10	90	0.00	30.038 
13:35	69.4	69.4	69.4	43	45.9	3	6	112	0.00	30.038 
13:40	69.4	69.4	69.4	44	46.5	2	5	112	0.00	30.036 
13:45	69.9	69.9	69.9	48	49.3	2	6	112	0.00	30.032 
13:50	70.3	70.3	70.3	44	47.3	3	9	112	0.00	30.032 
13:55	70.3	70.3	70.3	46	48.5	1	5	112	0.00	30.030 
14:00	70.4	70.4	70.4	42	46.2	4	7	112	0.00	30.028 
14:05	70.1	70.1	70.1	44	47.2	3	7	90	0.00	30.029 
14:10	70.4	70.4	70.4	46	48.6	2	4	112	0.00	30.027 
14:15	70.8	70.8	70.8	43	47.2	2	7	112	0.00	30.024 
14:20	71.1	71.1	71.1	43	47.5	2	6	112	0.00	30.023 
14:25	71.3	71.3	71.3	42	47.0	2	5	22	0.00	30.024 
14:30	71.1	71.1	71.1	42	46.8	3	7	112	0.00	30.024 
14:35	70.8	70.8	70.8	44	47.8	3	10	90	0.00	30.021 
14:40	71.1	71.1	71.1	44	48.1	2	6	112	0.00	30.021 
14:45	71.6	71.6	71.6	42	47.3	2	7	90	0.00	30.020 
14:50	71.8	71.8	71.8	42	47.5	3	7	90	0.00	30.019 
14:55	72.0	72.0	72.0	44	48.9	2	6	112	0.00	30.016 
15:00	71.5	71.5	71.5	45	49.0	4	7	112	0.00	30.016 
15:05	71.3	71.3	71.3	45	48.8	2	6	68	0.00	30.015 
15:10	71.1	71.1	71.1	43	47.5	2	5	112	0.00	30.014 
15:15	71.8	71.8	71.8	44	48.7	2	10	112	0.00	30.012 
15:20	72.0	72.0	72.0	40	46.3	3	7	112	0.00	30.016 
15:25	71.8	71.8	71.8	42	47.5	3	5	90	0.00	30.013 
15:30	71.8	71.8	71.8	40	46.2	3	10	90	0.00	30.012 
15:35	71.8	71.8	71.8	39	45.5	4	10	112	0.00	30.013 
15:40	72.1	72.1	72.1	40	46.4	1	4	135	0.00	30.010 
15:45	72.5	72.5	72.5	38	45.4	2	5	112	0.00	30.011 
15:50	72.7	72.7	72.7	40	47.0	1	6	112	0.00	30.012 
15:55	72.7	72.7	72.7	39	46.3	2	6	90	0.00	30.012 
16:00	72.8	72.8	72.8	39	46.4	3	8	90	0.00	30.012 
16:05	72.3	72.3	72.3	39	45.9	4	9	112	0.00	30.009 
16:10	71.8	71.8	71.8	39	45.5	4	10	112	0.00	30.012 
16:15	71.6	71.6	71.6	43	47.9	3	9	112	0.00	30.012 
16:20	71.8	71.8	71.8	41	46.8	2	4	112	0.00	30.010 
16:25	72.1	72.1	72.1	42	47.7	2	6	112	0.00	30.008 
16:30	72.1	72.1	72.1	43	48.4	3	6	112	0.00	30.010 
16:35	72.3	72.3	72.3	42	47.9	2	4	112	0.00	30.009 
16:40	72.1	72.1	72.1	43	48.4	1	4	90	0.00	30.010 
16:45	71.8	71.8	71.8	43	48.1	3	7	112	0.00	30.012 
16:50	70.9	70.9	70.9	45	48.5	3	5	90	0.00	30.013 
16:55	70.6	70.6	70.6	46	48.8	2	6	112	0.00	30.013 
17:00	70.3	70.3	70.3	46	48.5	3	6	112	0.00	30.013 
17:05	69.9	69.9	69.9	47	48.7	2	6	112	0.00	30.013 
17:10	69.8	69.8	69.8	46	48.1	1	3	112	0.00	30.013 
17:15	69.4	69.4	69.4	47	48.3	2	6	90	0.00	30.014 
17:20	69.4	69.4	69.4	48	48.8	1	4	90	0.00	30.013 
17:25	69.8	69.8	69.8	46	48.1	2	4	90	0.00	30.010 
17:30	70.1	70.1	70.1	46	48.3	2	4	90	0.00	30.008 
17:35	70.3	70.3	70.3	45	47.9	2	5	112	0.00	30.007 
17:40	70.3	70.3	70.3	46	48.5	1	5	135	0.00	30.007 
17:45	70.4	70.4	70.4	45	48.0	1	5	112	0.00	30.007 
17:50	70.4	70.4	70.4	44	47.4	1	3	112	0.00	30.008 
17:55	70.3	70.3	70.3	44	47.3	1	4	112	0.00	30.007 
18:00	70.3	70.3	70.3	44	47.3	1	3	135	0.00	30.006 
18:05	70.1	70.1	70.1	46	48.3	0	3	135	0.00	30.006 
18:10	69.9	69.9	69.9	48	49.3	3	5	90	0.00	30.005 
18:15	69.8	69.8	69.8	48	49.2	3	9	112	0.00	30.005 
18:20	69.6	69.6	69.6	48	49.0	2	5	112	0.00	30.006 
18:25	69.4	69.4	69.4	49	49.4	1	3	112	0.00	30.007 
18:30	69.3	69.3	69.3	50	49.8	1	4	112	0.00	30.007 
18:35	69.3	69.3	69.3	50	49.8	1	2	90	0.00	30.006 
18:40	69.1	69.1	69.1	50	49.7	1	5	112	0.00	30.007 
18:45	68.9	68.9	68.9	50	49.5	1	5	112	0.00	30.006 
18:50	68.8	68.8	68.8	51	49.9	2	4	112	0.00	30.006 
18:55	68.6	68.6	68.6	52	50.3	1	3	112	0.00	30.007 
19:00	68.3	68.3	68.3	52	50.0	1	3	90	0.00	30.006 
19:05	68.1	68.1	68.1	52	49.8	1	3	90	0.00	30.006 
19:10	67.9	67.9	67.9	53	50.1	1	2	90	0.00	30.006 
19:15	67.6	67.6	67.6	54	50.4	1	2	90	0.00	30.006 
19:20	67.4	67.4	67.4	54	50.2	0	2	90	0.00	30.008 
19:25	67.1	67.1	67.1	54	49.9	0	1	90	0.00	30.008 
19:30	66.8	66.8	66.8	55	50.1	0	2	90	0.00	30.008 
19:35	66.4	66.4	66.4	56	50.2	0	1	90	0.00	30.008 
19:40	66.1	66.1	66.1	57	50.4	0	0	---	0.00	30.010 
19:45	65.5	65.5	65.5	58	50.3	0	0	---	0.00	30.012 
19:50	64.8	64.8	64.8	58	49.7	0	0	---	0.00	30.015 
19:55	64.3	64.3	64.3	60	50.1	0	0	---	0.00	30.017 
20:00	63.7	63.7	63.7	61	50.0	0	0	---	0.00	30.016 
20:05	63.4	63.4	63.4	62	50.1	0	1	90	0.00	30.015 
20:10	63.2	63.2	63.2	62	50.0	0	2	90	0.00	30.017 
20:15	63.4	63.4	63.4	62	50.1	1	3	90	0.00	30.018 
20:20	63.7	63.7	63.7	62	50.4	0	2	90	0.00	30.020 
20:25	63.7	63.7	63.7	62	50.4	0	0	---	0.00	30.021 
20:30	63.4	63.4	63.4	63	50.6	0	1	90	0.00	30.023 
20:35	63.2	63.2	63.2	64	50.8	1	2	90	0.00	30.023 
20:40	63.4	63.4	63.4	64	51.0	1	2	90	0.00	30.024 
20:45	63.2	63.2	63.2	65	51.2	0	1	90	0.00	30.025 
20:50	63.1	63.1	63.1	65	51.1	0	1	90	0.00	30.027 
20:55	62.9	62.9	62.9	65	50.9	0	2	90	0.00	30.027 
21:00	62.7	62.7	62.7	66	51.2	0	1	90	0.00	30.029 
21:05	62.4	62.4	62.4	67	51.3	0	1	90	0.00	30.028 
21:10	62.1	62.1	62.1	68	51.4	0	3	90	0.00	30.030 
21:15	62.1	62.1	62.1	68	51.4	1	3	90	0.00	30.028 
21:20	62.1	62.1	62.1	68	51.4	1	2	90	0.00	30.028 
21:25	62.0	62.0	62.0	69	51.7	1	2	90	0.00	30.028 
21:30	61.8	61.8	61.8	69	51.5	1	2	90	0.00	30.030 
21:35	61.6	61.6	61.6	69	51.3	0	1	90	0.00	30.028 
21:40	61.3	61.3	61.3	70	51.4	0	1	90	0.00	30.029 
21:45	61.0	61.0	61.0	71	51.5	0	1	90	0.00	30.029 
21:50	60.7	60.7	60.7	71	51.2	0	0	---	0.00	30.030 
21:55	60.2	60.2	60.2	72	51.1	0	0	---	0.00	30.031 
22:00	59.8	59.8	59.8	73	51.1	0	0	---	0.00	30.032 
22:05	59.3	59.3	59.3	75	51.4	0	0	---	0.00	30.025 
22:10	58.9	58.9	58.9	77	51.7	0	0	---	0.00	30.028 
22:15	58.4	58.4	58.4	78	51.6	0	0	---	0.00	30.028 
22:20	58.1	58.1	58.1	79	51.6	0	0	---	0.00	30.030 
22:25	57.8	57.8	57.8	81	52.0	0	1	90	0.00	30.027 
22:30	57.8	57.8	57.8	82	52.3	0	2	90	0.00	30.027 
22:35	58.1	58.1	58.1	82	52.6	0	2	90	0.00	30.027 
22:40	58.0	58.0	58.0	82	52.5	0	0	---	0.00	30.028 
22:45	57.8	57.8	57.8	82	52.3	0	0	---	0.00	30.029 
22:50	57.5	57.5	57.5	83	52.4	0	0	---	0.00	30.029 
22:55	57.2	57.2	57.2	84	52.4	0	0	---	0.00	30.030 
23:00	56.9	56.9	56.9	84	52.1	0	0	---	0.00	30.030 
23:05	56.7	56.7	56.7	85	52.2	0	0	---	0.00	30.026 
23:10	56.5	56.5	56.5	86	52.4	0	1	90	0.00	30.025 
23:15	56.5	56.5	56.5	87	52.7	0	1	90	0.00	30.023 
23:20	56.5	56.5	56.5	87	52.7	0	1	90	0.00	30.022 
23:25	56.5	56.5	56.5	87	52.7	0	0	---	0.00	30.020 
23:30	56.3	56.3	56.3	87	52.5	0	0	---	0.00	30.021 
23:35	56.2	56.2	56.2	87	52.4	0	0	---	0.00	30.023 
23:40	56.0	56.0	56.0	88	52.5	0	1	90	0.00	30.025 
23:45	55.9	55.9	55.9	88	52.4	0	0	---	0.00	30.024 
23:50	55.7	55.7	55.7	88	52.2	0	1	90	0.00	30.025 
23:55	55.4	55.4	55.4	88	51.9	0	0	---	0.00	30.024 

CoCoRaHS
IN-AL-39
A2 Web Hosting
Creative Commons License
GoDaddy
Look for:

loaded 2017-10-19 14:20:45 • last modified 2010-11-18 10:43:29
Privacy PolicyDisclaimer
• wx.awcolley.com is powered by PmWiki v.2002016 •
• all content (unless otherwise noted) © 2017 A W Colley